Terminal Aerodrome Forecast
Issued by NWS

Home | Current Version | Previous Version | Text Only | Print | Product List | Glossary On
Versions: 1 2 3 4 5 6 7 8 9 10 11 12 13 14
000
FTUS45 KABQ 271448 AAA
TAFGUP
TAF AMD
KGUP 271448Z 2715/2812 22015G23KT P6SM BKN040
     FM271900 24025G35KT P6SM BKN060
     FM280100 23016KT P6SM OVC050
      TEMPO 2802/2806 5SM -RA OVC025
     FM280600 22015G25KT 5SM -RASN BR OVC015=

USA.gov is the U.S. government's official web portal to all federal, state and local government web resources and services.